sensor_id;sensor_type;location;lat;lon;timestamp;P1;durP1;ratioP1;P2;durP2;ratioP2
10661;SDS011;5379;51.034;7.006;2022-08-01T00:00:21;3.87;;;2.00;;
10661;SDS011;5379;51.034;7.006;2022-08-01T00:02:48;3.87;;;1.90;;
10661;SDS011;5379;51.034;7.006;2022-08-01T00:05:15;4.33;;;1.73;;
10661;SDS011;5379;51.034;7.006;2022-08-01T00:07:42;1.83;;;1.63;;
10661;SDS011;5379;51.034;7.006;2022-08-01T00:10:10;1.83;;;1.73;;
10661;SDS011;5379;51.034;7.006;2022-08-01T00:12:40;1.53;;;1.50;;
10661;SDS011;5379;51.034;7.006;2022-08-01T00:15:08;1.60;;;1.53;;
10661;SDS011;5379;51.034;7.006;2022-08-01T00:17:37;1.50;;;1.40;;
10661;SDS011;5379;51.034;7.006;2022-08-01T00:20:05;3.47;;;1.47;;
10661;SDS011;5379;51.034;7.006;2022-08-01T00:22:35;1.77;;;1.67;;
10661;SDS011;5379;51.034;7.006;2022-08-01T00:25:02;5.23;;;1.93;;
10661;SDS011;5379;51.034;7.006;2022-08-01T00:27:30;2.50;;;1.50;;
10661;SDS011;5379;51.034;7.006;2022-08-01T00:29:59;1.57;;;1.47;;
10661;SDS011;5379;51.034;7.006;2022-08-01T00:32:26;1.87;;;1.73;;
10661;SDS011;5379;51.034;7.006;2022-08-01T00:34:53;6.70;;;1.90;;
10661;SDS011;5379;51.034;7.006;2022-08-01T00:37:21;4.57;;;1.60;;
10661;SDS011;5379;51.034;7.006;2022-08-01T00:39:48;2.27;;;1.40;;
10661;SDS011;5379;51.034;7.006;2022-08-01T00:42:15;1.60;;;1.50;;
10661;SDS011;5379;51.034;7.006;2022-08-01T00:44:44;1.17;;;1.17;;
10661;SDS011;5379;51.034;7.006;2022-08-01T00:47:12;1.40;;;1.30;;
10661;SDS011;5379;51.034;7.006;2022-08-01T00:49:39;1.17;;;1.17;;
10661;SDS011;5379;51.034;7.006;2022-08-01T00:52:06;1.50;;;1.40;;
10661;SDS011;5379;51.034;7.006;2022-08-01T00:54:36;3.50;;;1.80;;
10661;SDS011;5379;51.034;7.006;2022-08-01T00:57:03;4.30;;;1.37;;
10661;SDS011;5379;51.034;7.006;2022-08-01T00:59:30;1.53;;;1.43;;
10661;SDS011;5379;51.034;7.006;2022-08-01T01:01:58;2.87;;;1.07;;
10661;SDS011;5379;51.034;7.006;2022-08-01T01:04:26;1.33;;;1.23;;
10661;SDS011;5379;51.034;7.006;2022-08-01T01:06:55;1.03;;;1.03;;
10661;SDS011;5379;51.034;7.006;2022-08-01T01:09:32;2.30;;;1.37;;
10661;SDS011;5379;51.034;7.006;2022-08-01T01:12:04;5.10;;;1.43;;
10661;SDS011;5379;51.034;7.006;2022-08-01T01:14:44;1.27;;;1.17;;
10661;SDS011;5379;51.034;7.006;2022-08-01T01:17:20;2.97;;;1.30;;
10661;SDS011;5379;51.034;7.006;2022-08-01T01:19:54;1.40;;;1.30;;
10661;SDS011;5379;51.034;7.006;2022-08-01T01:25:39;1.70;;;1.30;;
10661;SDS011;5379;51.034;7.006;2022-08-01T01:28:17;1.80;;;1.37;;
10661;SDS011;5379;51.034;7.006;2022-08-01T01:30:54;1.63;;;1.53;;
10661;SDS011;5379;51.034;7.006;2022-08-01T01:33:23;2.33;;;1.27;;
10661;SDS011;5379;51.034;7.006;2022-08-01T01:35:57;1.50;;;1.40;;
10661;SDS011;5379;51.034;7.006;2022-08-01T01:38:29;1.27;;;1.27;;
10661;SDS011;5379;51.034;7.006;2022-08-01T01:41:00;1.50;;;1.40;;
10661;SDS011;5379;51.034;7.006;2022-08-01T01:43:30;1.47;;;1.37;;
10661;SDS011;5379;51.034;7.006;2022-08-01T01:46:00;1.70;;;1.60;;
10661;SDS011;5379;51.034;7.006;2022-08-01T01:48:28;1.10;;;1.03;;
10661;SDS011;5379;51.034;7.006;2022-08-01T01:50:56;1.57;;;1.47;;
10661;SDS011;5379;51.034;7.006;2022-08-01T01:53:24;1.67;;;1.57;;
10661;SDS011;5379;51.034;7.006;2022-08-01T01:55:55;1.73;;;1.63;;
10661;SDS011;5379;51.034;7.006;2022-08-01T01:58:24;2.07;;;1.80;;
10661;SDS011;5379;51.034;7.006;2022-08-01T02:00:54;2.83;;;1.47;;
10661;SDS011;5379;51.034;7.006;2022-08-01T02:03:24;1.63;;;1.53;;
10661;SDS011;5379;51.034;7.006;2022-08-01T02:05:52;1.60;;;1.50;;
10661;SDS011;5379;51.034;7.006;2022-08-01T02:08:21;3.27;;;1.87;;
10661;SDS011;5379;51.034;7.006;2022-08-01T02:10:50;1.53;;;1.23;;
10661;SDS011;5379;51.034;7.006;2022-08-01T02:13:52;2.13;;;1.63;;
10661;SDS011;5379;51.034;7.006;2022-08-01T02:16:24;2.13;;;1.40;;
10661;SDS011;5379;51.034;7.006;2022-08-01T02:18:54;4.10;;;1.27;;
10661;SDS011;5379;51.034;7.006;2022-08-01T02:21:23;1.37;;;1.20;;
10661;SDS011;5379;51.034;7.006;2022-08-01T02:23:54;4.33;;;1.67;;
10661;SDS011;5379;51.034;7.006;2022-08-01T02:26:26;2.63;;;1.43;;
10661;SDS011;5379;51.034;7.006;2022-08-01T02:28:56;2.87;;;1.33;;
10661;SDS011;5379;51.034;7.006;2022-08-01T02:31:25;1.63;;;1.37;;
10661;SDS011;5379;51.034;7.006;2022-08-01T02:33:57;1.13;;;1.10;;
10661;SDS011;5379;51.034;7.006;2022-08-01T02:36:28;1.57;;;1.47;;
10661;SDS011;5379;51.034;7.006;2022-08-01T02:38:56;1.50;;;1.17;;
10661;SDS011;5379;51.034;7.006;2022-08-01T02:41:25;1.87;;;1.60;;
10661;SDS011;5379;51.034;7.006;2022-08-01T02:43:56;1.57;;;1.47;;
10661;SDS011;5379;51.034;7.006;2022-08-01T02:46:26;1.93;;;1.70;;
10661;SDS011;5379;51.034;7.006;2022-08-01T02:48:59;1.60;;;1.50;;
10661;SDS011;5379;51.034;7.006;2022-08-01T02:51:28;4.13;;;1.50;;
10661;SDS011;5379;51.034;7.006;2022-08-01T02:53:57;1.87;;;1.53;;
10661;SDS011;5379;51.034;7.006;2022-08-01T02:56:27;1.47;;;1.43;;
10661;SDS011;5379;51.034;7.006;2022-08-01T02:59:01;1.50;;;1.40;;
10661;SDS011;5379;51.034;7.006;2022-08-01T03:01:31;1.47;;;1.40;;
10661;SDS011;5379;51.034;7.006;2022-08-01T03:04:03;2.33;;;1.70;;
10661;SDS011;5379;51.034;7.006;2022-08-01T03:06:31;1.63;;;1.53;;
10661;SDS011;5379;51.034;7.006;2022-08-01T03:08:59;2.27;;;2.07;;
10661;SDS011;5379;51.034;7.006;2022-08-01T03:11:27;2.10;;;1.90;;
10661;SDS011;5379;51.034;7.006;2022-08-01T03:13:57;1.33;;;1.30;;
10661;SDS011;5379;51.034;7.006;2022-08-01T03:16:27;2.43;;;1.97;;
10661;SDS011;5379;51.034;7.006;2022-08-01T03:18:57;2.20;;;1.90;;
10661;SDS011;5379;51.034;7.006;2022-08-01T03:21:29;3.27;;;2.23;;
10661;SDS011;5379;51.034;7.006;2022-08-01T03:23:58;2.07;;;1.70;;
10661;SDS011;5379;51.034;7.006;2022-08-01T03:26:27;1.73;;;1.63;;
10661;SDS011;5379;51.034;7.006;2022-08-01T03:28:57;2.10;;;2.00;;
10661;SDS011;5379;51.034;7.006;2022-08-01T03:31:28;1.70;;;1.57;;
10661;SDS011;5379;51.034;7.006;2022-08-01T03:33:56;1.83;;;1.73;;
10661;SDS011;5379;51.034;7.006;2022-08-01T03:36:25;4.47;;;2.20;;
10661;SDS011;5379;51.034;7.006;2022-08-01T03:38:56;2.20;;;2.00;;
10661;SDS011;5379;51.034;7.006;2022-08-01T03:41:26;2.77;;;2.23;;
10661;SDS011;5379;51.034;7.006;2022-08-01T03:43:57;2.83;;;2.57;;
10661;SDS011;5379;51.034;7.006;2022-08-01T03:46:29;2.10;;;1.80;;
10661;SDS011;5379;51.034;7.006;2022-08-01T03:49:03;5.97;;;2.77;;
10661;SDS011;5379;51.034;7.006;2022-08-01T03:51:37;2.60;;;2.40;;
10661;SDS011;5379;51.034;7.006;2022-08-01T03:54:06;4.30;;;2.43;;
10661;SDS011;5379;51.034;7.006;2022-08-01T03:56:36;2.33;;;1.93;;
10661;SDS011;5379;51.034;7.006;2022-08-01T03:59:04;2.83;;;2.43;;
10661;SDS011;5379;51.034;7.006;2022-08-01T04:01:32;2.53;;;2.30;;
10661;SDS011;5379;51.034;7.006;2022-08-01T04:04:00;2.20;;;2.10;;
10661;SDS011;5379;51.034;7.006;2022-08-01T04:06:30;3.97;;;2.67;;
10661;SDS011;5379;51.034;7.006;2022-08-01T04:08:57;3.90;;;2.70;;
10661;SDS011;5379;51.034;7.006;2022-08-01T04:11:26;2.40;;;2.20;;
10661;SDS011;5379;51.034;7.006;2022-08-01T04:13:54;3.00;;;2.60;;
10661;SDS011;5379;51.034;7.006;2022-08-01T04:16:22;2.60;;;2.37;;
10661;SDS011;5379;51.034;7.006;2022-08-01T04:18:49;2.43;;;2.23;;
10661;SDS011;5379;51.034;7.006;2022-08-01T04:21:17;3.97;;;2.93;;
10661;SDS011;5379;51.034;7.006;2022-08-01T04:23:47;10.83;;;3.00;;
10661;SDS011;5379;51.034;7.006;2022-08-01T04:26:17;3.53;;;2.90;;
10661;SDS011;5379;51.034;7.006;2022-08-01T04:28:47;11.13;;;3.03;;
10661;SDS011;5379;51.034;7.006;2022-08-01T04:31:16;3.47;;;2.87;;
10661;SDS011;5379;51.034;7.006;2022-08-01T04:33:45;4.90;;;3.43;;
10661;SDS011;5379;51.034;7.006;2022-08-01T04:36:15;3.87;;;2.87;;
10661;SDS011;5379;51.034;7.006;2022-08-01T04:38:48;4.07;;;3.17;;
10661;SDS011;5379;51.034;7.006;2022-08-01T04:41:17;5.33;;;3.20;;
10661;SDS011;5379;51.034;7.006;2022-08-01T04:43:47;2.77;;;2.57;;
10661;SDS011;5379;51.034;7.006;2022-08-01T04:46:16;4.83;;;3.73;;
10661;SDS011;5379;51.034;7.006;2022-08-01T04:48:43;2.67;;;2.47;;
10661;SDS011;5379;51.034;7.006;2022-08-01T04:51:12;5.13;;;3.90;;
10661;SDS011;5379;51.034;7.006;2022-08-01T04:53:40;4.20;;;3.07;;
10661;SDS011;5379;51.034;7.006;2022-08-01T04:56:07;6.90;;;3.27;;
10661;SDS011;5379;51.034;7.006;2022-08-01T04:58:38;12.37;;;3.70;;
10661;SDS011;5379;51.034;7.006;2022-08-01T05:01:07;3.50;;;3.00;;
10661;SDS011;5379;51.034;7.006;2022-08-01T05:03:34;6.27;;;3.73;;
10661;SDS011;5379;51.034;7.006;2022-08-01T05:06:02;4.87;;;3.93;;
10661;SDS011;5379;51.034;7.006;2022-08-01T05:08:29;7.30;;;3.03;;
10661;SDS011;5379;51.034;7.006;2022-08-01T05:10:56;6.37;;;3.27;;
10661;SDS011;5379;51.034;7.006;2022-08-01T05:13:23;11.73;;;4.07;;
10661;SDS011;5379;51.034;7.006;2022-08-01T05:15:50;3.90;;;3.60;;
10661;SDS011;5379;51.034;7.006;2022-08-01T05:18:20;8.03;;;4.37;;
10661;SDS011;5379;51.034;7.006;2022-08-01T05:20:47;6.20;;;4.03;;
10661;SDS011;5379;51.034;7.006;2022-08-01T05:23:14;6.07;;;4.10;;
10661;SDS011;5379;51.034;7.006;2022-08-01T05:25:43;3.80;;;3.50;;
10661;SDS011;5379;51.034;7.006;2022-08-01T05:28:10;4.60;;;3.80;;
10661;SDS011;5379;51.034;7.006;2022-08-01T05:30:38;4.93;;;4.50;;
10661;SDS011;5379;51.034;7.006;2022-08-01T05:33:05;6.20;;;4.80;;
10661;SDS011;5379;51.034;7.006;2022-08-01T05:35:34;5.03;;;4.10;;
10661;SDS011;5379;51.034;7.006;2022-08-01T05:38:01;5.10;;;4.60;;
10661;SDS011;5379;51.034;7.006;2022-08-01T05:40:28;9.60;;;4.17;;
10661;SDS011;5379;51.034;7.006;2022-08-01T05:42:55;7.30;;;4.00;;
10661;SDS011;5379;51.034;7.006;2022-08-01T05:45:22;4.20;;;3.80;;
10661;SDS011;5379;51.034;7.006;2022-08-01T05:47:49;5.23;;;4.00;;
10661;SDS011;5379;51.034;7.006;2022-08-01T05:50:16;9.47;;;5.27;;
10661;SDS011;5379;51.034;7.006;2022-08-01T05:52:45;6.00;;;4.27;;
10661;SDS011;5379;51.034;7.006;2022-08-01T05:55:12;8.70;;;4.93;;
10661;SDS011;5379;51.034;7.006;2022-08-01T05:57:39;7.73;;;5.50;;
10661;SDS011;5379;51.034;7.006;2022-08-01T06:00:06;10.47;;;5.93;;
10661;SDS011;5379;51.034;7.006;2022-08-01T06:02:39;14.57;;;6.10;;
10661;SDS011;5379;51.034;7.006;2022-08-01T06:05:07;6.87;;;4.87;;
10661;SDS011;5379;51.034;7.006;2022-08-01T06:07:34;6.77;;;5.43;;
10661;SDS011;5379;51.034;7.006;2022-08-01T06:10:05;4.40;;;4.00;;
10661;SDS011;5379;51.034;7.006;2022-08-01T06:12:34;7.90;;;5.77;;
10661;SDS011;5379;51.034;7.006;2022-08-01T06:15:01;7.13;;;5.33;;
10661;SDS011;5379;51.034;7.006;2022-08-01T06:17:28;7.13;;;5.70;;
10661;SDS011;5379;51.034;7.006;2022-08-01T06:19:56;6.83;;;5.50;;
10661;SDS011;5379;51.034;7.006;2022-08-01T06:22:23;6.10;;;5.60;;
10661;SDS011;5379;51.034;7.006;2022-08-01T06:24:50;7.20;;;5.87;;
10661;SDS011;5379;51.034;7.006;2022-08-01T06:27:18;4.40;;;3.60;;
10661;SDS011;5379;51.034;7.006;2022-08-01T06:29:46;6.80;;;5.63;;
10661;SDS011;5379;51.034;7.006;2022-08-01T06:32:13;6.00;;;4.83;;
10661;SDS011;5379;51.034;7.006;2022-08-01T06:34:40;8.20;;;5.03;;
10661;SDS011;5379;51.034;7.006;2022-08-01T06:37:07;5.13;;;4.70;;
10661;SDS011;5379;51.034;7.006;2022-08-01T06:39:34;7.73;;;6.50;;
10661;SDS011;5379;51.034;7.006;2022-08-01T06:42:02;4.20;;;3.87;;
10661;SDS011;5379;51.034;7.006;2022-08-01T06:44:30;11.40;;;5.00;;
10661;SDS011;5379;51.034;7.006;2022-08-01T06:46:57;7.13;;;5.90;;
10661;SDS011;5379;51.034;7.006;2022-08-01T06:49:24;7.67;;;6.03;;
10661;SDS011;5379;51.034;7.006;2022-08-01T06:51:51;6.03;;;4.60;;
10661;SDS011;5379;51.034;7.006;2022-08-01T06:54:19;5.90;;;3.27;;
10661;SDS011;5379;51.034;7.006;2022-08-01T06:56:46;15.87;;;6.20;;
10661;SDS011;5379;51.034;7.006;2022-08-01T06:59:13;7.97;;;6.93;;
10661;SDS011;5379;51.034;7.006;2022-08-01T07:01:41;7.60;;;6.10;;
10661;SDS011;5379;51.034;7.006;2022-08-01T07:04:09;7.77;;;5.27;;
10661;SDS011;5379;51.034;7.006;2022-08-01T07:06:36;7.87;;;5.43;;
10661;SDS011;5379;51.034;7.006;2022-08-01T07:09:03;7.10;;;5.13;;
10661;SDS011;5379;51.034;7.006;2022-08-01T07:11:30;9.13;;;5.03;;
10661;SDS011;5379;51.034;7.006;2022-08-01T07:13:57;8.43;;;6.17;;
10661;SDS011;5379;51.034;7.006;2022-08-01T07:16:25;5.73;;;4.10;;
10661;SDS011;5379;51.034;7.006;2022-08-01T07:18:54;4.27;;;3.90;;
10661;SDS011;5379;51.034;7.006;2022-08-01T07:21:21;6.47;;;4.67;;
10661;SDS011;5379;51.034;7.006;2022-08-01T07:23:48;5.40;;;4.73;;
10661;SDS011;5379;51.034;7.006;2022-08-01T07:26:15;4.83;;;4.20;;
10661;SDS011;5379;51.034;7.006;2022-08-01T07:28:42;8.57;;;5.37;;
10661;SDS011;5379;51.034;7.006;2022-08-01T07:31:09;5.53;;;5.03;;
10661;SDS011;5379;51.034;7.006;2022-08-01T07:33:37;6.20;;;5.60;;
10661;SDS011;5379;51.034;7.006;2022-08-01T07:36:05;5.97;;;5.33;;
10661;SDS011;5379;51.034;7.006;2022-08-01T07:38:32;6.77;;;4.43;;
10661;SDS011;5379;51.034;7.006;2022-08-01T07:40:59;5.40;;;4.90;;
10661;SDS011;5379;51.034;7.006;2022-08-01T07:43:27;5.37;;;4.87;;
10661;SDS011;5379;51.034;7.006;2022-08-01T07:45:54;10.67;;;4.60;;
10661;SDS011;5379;51.034;7.006;2022-08-01T07:48:21;6.53;;;4.20;;
10661;SDS011;5379;51.034;7.006;2022-08-01T07:50:49;5.97;;;5.47;;
10661;SDS011;5379;51.034;7.006;2022-08-01T07:53:18;4.77;;;4.37;;
10661;SDS011;5379;51.034;7.006;2022-08-01T07:55:45;4.67;;;3.23;;
10661;SDS011;5379;51.034;7.006;2022-08-01T07:58:13;3.77;;;3.47;;
10661;SDS011;5379;51.034;7.006;2022-08-01T08:00:40;4.57;;;4.10;;
10661;SDS011;5379;51.034;7.006;2022-08-01T08:03:07;5.57;;;3.70;;
10661;SDS011;5379;51.034;7.006;2022-08-01T08:05:34;6.63;;;5.30;;
10661;SDS011;5379;51.034;7.006;2022-08-01T08:08:01;4.77;;;4.37;;
10661;SDS011;5379;51.034;7.006;2022-08-01T08:10:30;3.80;;;3.50;;
10661;SDS011;5379;51.034;7.006;2022-08-01T08:12:57;3.73;;;3.43;;
10661;SDS011;5379;51.034;7.006;2022-08-01T08:15:24;5.73;;;3.77;;
10661;SDS011;5379;51.034;7.006;2022-08-01T08:17:51;5.77;;;4.33;;
10661;SDS011;5379;51.034;7.006;2022-08-01T08:20:18;4.23;;;3.90;;
10661;SDS011;5379;51.034;7.006;2022-08-01T08:22:49;3.50;;;2.87;;
10661;SDS011;5379;51.034;7.006;2022-08-01T08:25:16;3.40;;;3.10;;
10661;SDS011;5379;51.034;7.006;2022-08-01T08:27:46;4.77;;;3.07;;
10661;SDS011;5379;51.034;7.006;2022-08-01T08:30:13;2.43;;;2.23;;
10661;SDS011;5379;51.034;7.006;2022-08-01T08:32:41;3.20;;;2.90;;
10661;SDS011;5379;51.034;7.006;2022-08-01T08:35:08;3.03;;;2.83;;
10661;SDS011;5379;51.034;7.006;2022-08-01T08:37:35;2.70;;;2.50;;
10661;SDS011;5379;51.034;7.006;2022-08-01T08:40:03;2.77;;;2.50;;
10661;SDS011;5379;51.034;7.006;2022-08-01T08:42:31;3.20;;;2.97;;
10661;SDS011;5379;51.034;7.006;2022-08-01T08:45:01;3.43;;;2.80;;
10661;SDS011;5379;51.034;7.006;2022-08-01T08:47:28;3.80;;;3.40;;
10661;SDS011;5379;51.034;7.006;2022-08-01T08:49:59;3.40;;;2.40;;
10661;SDS011;5379;51.034;7.006;2022-08-01T08:52:27;1.90;;;1.80;;
10661;SDS011;5379;51.034;7.006;2022-08-01T08:54:55;2.90;;;2.40;;
10661;SDS011;5379;51.034;7.006;2022-08-01T08:57:23;3.27;;;2.97;;
10661;SDS011;5379;51.034;7.006;2022-08-01T08:59:50;3.80;;;3.13;;
10661;SDS011;5379;51.034;7.006;2022-08-01T09:02:20;2.77;;;2.57;;
10661;SDS011;5379;51.034;7.006;2022-08-01T09:04:48;2.50;;;2.40;;
10661;SDS011;5379;51.034;7.006;2022-08-01T09:07:16;6.47;;;2.33;;
10661;SDS011;5379;51.034;7.006;2022-08-01T09:09:43;2.57;;;2.37;;
10661;SDS011;5379;51.034;7.006;2022-08-01T09:12:15;2.60;;;2.40;;
10661;SDS011;5379;51.034;7.006;2022-08-01T09:14:46;2.37;;;2.17;;
10661;SDS011;5379;51.034;7.006;2022-08-01T09:17:15;2.93;;;2.73;;
10661;SDS011;5379;51.034;7.006;2022-08-01T09:19:44;3.03;;;2.20;;
10661;SDS011;5379;51.034;7.006;2022-08-01T09:22:13;4.33;;;2.97;;
10661;SDS011;5379;51.034;7.006;2022-08-01T09:24:55;4.53;;;3.23;;
10661;SDS011;5379;51.034;7.006;2022-08-01T09:27:24;2.93;;;2.73;;
10661;SDS011;5379;51.034;7.006;2022-08-01T09:29:51;2.97;;;2.77;;
10661;SDS011;5379;51.034;7.006;2022-08-01T09:32:19;2.10;;;2.00;;
10661;SDS011;5379;51.034;7.006;2022-08-01T09:34:48;2.13;;;1.93;;
10661;SDS011;5379;51.034;7.006;2022-08-01T09:37:15;2.40;;;2.20;;
10661;SDS011;5379;51.034;7.006;2022-08-01T09:39:55;1.70;;;1.60;;
10661;SDS011;5379;51.034;7.006;2022-08-01T09:42:24;2.50;;;2.30;;
10661;SDS011;5379;51.034;7.006;2022-08-01T09:44:52;3.77;;;2.10;;
10661;SDS011;5379;51.034;7.006;2022-08-01T09:47:19;2.43;;;2.30;;
10661;SDS011;5379;51.034;7.006;2022-08-01T09:49:54;8.73;;;2.90;;
10661;SDS011;5379;51.034;7.006;2022-08-01T09:52:23;5.03;;;2.70;;
10661;SDS011;5379;51.034;7.006;2022-08-01T09:54:51;2.00;;;1.90;;
10661;SDS011;5379;51.034;7.006;2022-08-01T09:57:19;3.10;;;2.20;;
10661;SDS011;5379;51.034;7.006;2022-08-01T09:59:47;2.30;;;2.10;;
10661;SDS011;5379;51.034;7.006;2022-08-01T10:02:26;3.00;;;2.43;;
10661;SDS011;5379;51.034;7.006;2022-08-01T10:04:56;1.90;;;1.80;;
10661;SDS011;5379;51.034;7.006;2022-08-01T10:07:23;2.83;;;2.63;;
10661;SDS011;5379;51.034;7.006;2022-08-01T10:09:50;3.97;;;2.93;;
10661;SDS011;5379;51.034;7.006;2022-08-01T10:12:18;2.97;;;2.53;;
10661;SDS011;5379;51.034;7.006;2022-08-01T10:14:47;2.13;;;1.90;;
10661;SDS011;5379;51.034;7.006;2022-08-01T10:17:15;3.73;;;2.63;;
10661;SDS011;5379;51.034;7.006;2022-08-01T10:19:45;5.20;;;3.33;;
10661;SDS011;5379;51.034;7.006;2022-08-01T10:22:16;4.80;;;2.13;;
10661;SDS011;5379;51.034;7.006;2022-08-01T10:24:46;2.00;;;1.90;;
10661;SDS011;5379;51.034;7.006;2022-08-01T10:27:14;3.80;;;2.30;;
10661;SDS011;5379;51.034;7.006;2022-08-01T10:29:46;2.87;;;2.67;;
10661;SDS011;5379;51.034;7.006;2022-08-01T10:32:16;3.70;;;2.27;;
10661;SDS011;5379;51.034;7.006;2022-08-01T10:34:43;2.17;;;2.07;;
10661;SDS011;5379;51.034;7.006;2022-08-01T10:37:11;5.10;;;2.37;;
10661;SDS011;5379;51.034;7.006;2022-08-01T10:39:42;2.23;;;2.10;;
10661;SDS011;5379;51.034;7.006;2022-08-01T10:42:10;2.30;;;2.10;;
10661;SDS011;5379;51.034;7.006;2022-08-01T10:44:38;6.00;;;1.93;;
10661;SDS011;5379;51.034;7.006;2022-08-01T10:47:07;2.80;;;2.20;;
10661;SDS011;5379;51.034;7.006;2022-08-01T10:49:47;2.70;;;1.80;;
10661;SDS011;5379;51.034;7.006;2022-08-01T10:52:17;1.93;;;1.70;;
10661;SDS011;5379;51.034;7.006;2022-08-01T10:54:46;3.33;;;2.77;;
10661;SDS011;5379;51.034;7.006;2022-08-01T10:57:13;3.03;;;2.73;;
10661;SDS011;5379;51.034;7.006;2022-08-01T10:59:49;2.70;;;2.50;;
10661;SDS011;5379;51.034;7.006;2022-08-01T11:02:25;1.60;;;1.50;;
10661;SDS011;5379;51.034;7.006;2022-08-01T11:04:55;4.87;;;2.27;;
10661;SDS011;5379;51.034;7.006;2022-08-01T11:07:34;5.17;;;2.37;;
10661;SDS011;5379;51.034;7.006;2022-08-01T11:10:12;2.17;;;2.07;;
10661;SDS011;5379;51.034;7.006;2022-08-01T11:12:45;1.77;;;1.67;;
10661;SDS011;5379;51.034;7.006;2022-08-01T11:15:22;1.87;;;1.77;;
10661;SDS011;5379;51.034;7.006;2022-08-01T11:17:51;2.07;;;1.90;;
10661;SDS011;5379;51.034;7.006;2022-08-01T11:20:19;1.80;;;1.70;;
10661;SDS011;5379;51.034;7.006;2022-08-01T11:31:38;1.90;;;1.80;;
10661;SDS011;5379;51.034;7.006;2022-08-01T11:34:05;2.13;;;2.03;;
10661;SDS011;5379;51.034;7.006;2022-08-01T11:36:32;1.87;;;1.77;;
10661;SDS011;5379;51.034;7.006;2022-08-01T11:39:18;2.40;;;2.20;;
10661;SDS011;5379;51.034;7.006;2022-08-01T11:41:47;2.37;;;2.17;;
10661;SDS011;5379;51.034;7.006;2022-08-01T11:44:16;2.70;;;2.27;;
10661;SDS011;5379;51.034;7.006;2022-08-01T11:46:45;2.87;;;2.30;;
10661;SDS011;5379;51.034;7.006;2022-08-01T11:49:23;1.80;;;1.70;;
10661;SDS011;5379;51.034;7.006;2022-08-01T11:51:58;1.53;;;1.40;;
10661;SDS011;5379;51.034;7.006;2022-08-01T11:54:27;1.97;;;1.87;;
10661;SDS011;5379;51.034;7.006;2022-08-01T11:56:57;3.00;;;1.90;;
10661;SDS011;5379;51.034;7.006;2022-08-01T11:59:26;1.83;;;1.70;;
10661;SDS011;5379;51.034;7.006;2022-08-01T12:01:53;1.70;;;1.60;;
10661;SDS011;5379;51.034;7.006;2022-08-01T12:04:20;1.80;;;1.70;;
10661;SDS011;5379;51.034;7.006;2022-08-01T12:06:47;2.33;;;1.17;;
10661;SDS011;5379;51.034;7.006;2022-08-01T12:09:18;1.30;;;1.23;;
10661;SDS011;5379;51.034;7.006;2022-08-01T12:11:47;1.70;;;1.57;;
10661;SDS011;5379;51.034;7.006;2022-08-01T12:14:19;1.40;;;1.40;;
10661;SDS011;5379;51.034;7.006;2022-08-01T12:16:53;1.30;;;1.30;;
10661;SDS011;5379;51.034;7.006;2022-08-01T12:19:21;2.27;;;1.43;;
10661;SDS011;5379;51.034;7.006;2022-08-01T12:22:05;2.50;;;1.40;;
10661;SDS011;5379;51.034;7.006;2022-08-01T12:24:37;1.73;;;1.40;;
10661;SDS011;5379;51.034;7.006;2022-08-01T12:27:07;1.43;;;1.43;;
10661;SDS011;5379;51.034;7.006;2022-08-01T12:29:37;1.57;;;1.47;;
10661;SDS011;5379;51.034;7.006;2022-08-01T12:32:22;1.53;;;1.43;;
10661;SDS011;5379;51.034;7.006;2022-08-01T12:34:51;1.03;;;1.03;;
10661;SDS011;5379;51.034;7.006;2022-08-01T12:37:20;1.60;;;1.50;;
10661;SDS011;5379;51.034;7.006;2022-08-01T12:39:47;1.70;;;1.60;;
10661;SDS011;5379;51.034;7.006;2022-08-01T12:42:14;2.23;;;1.30;;
10661;SDS011;5379;51.034;7.006;2022-08-01T12:44:44;1.07;;;1.07;;
10661;SDS011;5379;51.034;7.006;2022-08-01T12:47:14;1.70;;;1.60;;
10661;SDS011;5379;51.034;7.006;2022-08-01T12:49:42;2.07;;;1.43;;
10661;SDS011;5379;51.034;7.006;2022-08-01T12:52:11;2.03;;;1.83;;
10661;SDS011;5379;51.034;7.006;2022-08-01T12:57:33;2.37;;;1.50;;
10661;SDS011;5379;51.034;7.006;2022-08-01T13:00:09;1.03;;;1.03;;
10661;SDS011;5379;51.034;7.006;2022-08-01T13:02:40;1.87;;;1.40;;
10661;SDS011;5379;51.034;7.006;2022-08-01T13:05:08;1.43;;;0.97;;
10661;SDS011;5379;51.034;7.006;2022-08-01T13:07:40;1.23;;;1.03;;
10661;SDS011;5379;51.034;7.006;2022-08-01T13:10:12;1.20;;;1.17;;
10661;SDS011;5379;51.034;7.006;2022-08-01T13:12:41;1.90;;;0.93;;
10661;SDS011;5379;51.034;7.006;2022-08-01T13:15:20;0.80;;;0.80;;
10661;SDS011;5379;51.034;7.006;2022-08-01T13:17:50;0.97;;;0.97;;
10661;SDS011;5379;51.034;7.006;2022-08-01T13:20:21;0.80;;;0.80;;
10661;SDS011;5379;51.034;7.006;2022-08-01T13:22:53;0.90;;;0.90;;
10661;SDS011;5379;51.034;7.006;2022-08-01T13:25:20;1.03;;;0.90;;
10661;SDS011;5379;51.034;7.006;2022-08-01T13:27:47;0.60;;;0.60;;
10661;SDS011;5379;51.034;7.006;2022-08-01T13:30:14;11.43;;;1.10;;
10661;SDS011;5379;51.034;7.006;2022-08-01T13:32:44;2.67;;;1.20;;
10661;SDS011;5379;51.034;7.006;2022-08-01T13:35:24;12.50;;;2.50;;
10661;SDS011;5379;51.034;7.006;2022-08-01T13:37:51;0.70;;;0.70;;
10661;SDS011;5379;51.034;7.006;2022-08-01T13:40:23;3.50;;;1.60;;
10661;SDS011;5379;51.034;7.006;2022-08-01T13:42:50;14.60;;;2.63;;
10661;SDS011;5379;51.034;7.006;2022-08-01T13:45:18;2.87;;;1.60;;
10661;SDS011;5379;51.034;7.006;2022-08-01T13:47:47;6.10;;;2.30;;
10661;SDS011;5379;51.034;7.006;2022-08-01T13:50:14;1.70;;;1.00;;
10661;SDS011;5379;51.034;7.006;2022-08-01T13:52:41;1.17;;;0.90;;
10661;SDS011;5379;51.034;7.006;2022-08-01T13:55:08;7.20;;;1.00;;
10661;SDS011;5379;51.034;7.006;2022-08-01T13:57:35;2.03;;;1.07;;
10661;SDS011;5379;51.034;7.006;2022-08-01T14:00:03;0.97;;;0.90;;
10661;SDS011;5379;51.034;7.006;2022-08-01T14:02:32;2.47;;;1.47;;
10661;SDS011;5379;51.034;7.006;2022-08-01T14:05:02;1.13;;;0.73;;
10661;SDS011;5379;51.034;7.006;2022-08-01T14:07:29;3.70;;;1.47;;
10661;SDS011;5379;51.034;7.006;2022-08-01T14:09:56;1.63;;;0.90;;
10661;SDS011;5379;51.034;7.006;2022-08-01T14:12:24;1.60;;;1.00;;
10661;SDS011;5379;51.034;7.006;2022-08-01T14:14:51;0.97;;;0.97;;
10661;SDS011;5379;51.034;7.006;2022-08-01T14:17:18;5.50;;;1.40;;
10661;SDS011;5379;51.034;7.006;2022-08-01T14:19:45;1.10;;;1.10;;
10661;SDS011;5379;51.034;7.006;2022-08-01T14:22:13;1.13;;;1.03;;
10661;SDS011;5379;51.034;7.006;2022-08-01T14:24:40;0.80;;;0.80;;
10661;SDS011;5379;51.034;7.006;2022-08-01T14:27:07;0.80;;;0.80;;
10661;SDS011;5379;51.034;7.006;2022-08-01T14:29:34;0.80;;;0.80;;
10661;SDS011;5379;51.034;7.006;2022-08-01T14:32:01;1.27;;;1.00;;
10661;SDS011;5379;51.034;7.006;2022-08-01T14:34:29;1.17;;;0.80;;
10661;SDS011;5379;51.034;7.006;2022-08-01T14:36:56;1.10;;;1.00;;
10661;SDS011;5379;51.034;7.006;2022-08-01T14:39:24;1.23;;;1.13;;
10661;SDS011;5379;51.034;7.006;2022-08-01T14:41:51;1.07;;;1.07;;
10661;SDS011;5379;51.034;7.006;2022-08-01T14:44:18;1.10;;;1.10;;
10661;SDS011;5379;51.034;7.006;2022-08-01T14:46:45;0.97;;;0.87;;
10661;SDS011;5379;51.034;7.006;2022-08-01T14:49:13;2.63;;;1.30;;
10661;SDS011;5379;51.034;7.006;2022-08-01T14:51:40;1.37;;;0.83;;
10661;SDS011;5379;51.034;7.006;2022-08-01T14:54:07;1.07;;;1.07;;
10661;SDS011;5379;51.034;7.006;2022-08-01T14:56:36;1.63;;;1.17;;
10661;SDS011;5379;51.034;7.006;2022-08-01T14:59:03;1.07;;;1.03;;
10661;SDS011;5379;51.034;7.006;2022-08-01T15:01:30;0.90;;;0.90;;
10661;SDS011;5379;51.034;7.006;2022-08-01T15:03:57;1.10;;;1.10;;
10661;SDS011;5379;51.034;7.006;2022-08-01T15:06:24;1.23;;;1.17;;
10661;SDS011;5379;51.034;7.006;2022-08-01T15:08:51;1.13;;;1.13;;
10661;SDS011;5379;51.034;7.006;2022-08-01T15:11:18;1.03;;;1.03;;
10661;SDS011;5379;51.034;7.006;2022-08-01T15:13:46;1.57;;;1.30;;
10661;SDS011;5379;51.034;7.006;2022-08-01T15:16:35;1.27;;;1.17;;
10661;SDS011;5379;51.034;7.006;2022-08-01T15:19:02;4.33;;;1.03;;
10661;SDS011;5379;51.034;7.006;2022-08-01T15:21:29;1.33;;;1.27;;
10661;SDS011;5379;51.034;7.006;2022-08-01T15:23:56;1.10;;;1.10;;
10661;SDS011;5379;51.034;7.006;2022-08-01T15:26:23;2.40;;;1.47;;